Time;durP1;ratioP1;P1;durP2;ratioP2;P2;SDS_P1;SDS_P2;PMS_P1;PMS_P2;Temp;Humidity;BMP_temperature;BMP_pressure;BME280_temperature;BME280_humidity;BME280_pressure;Samples;Min_cycle;Max_cycle;Signal;HPM_P1;HPM_P2
2023/01/18 00:01:21;;;;;;;12.25;4.97;;;;;;;-1.29;100.00;98241.91;5227440;28;20032;-75
2023/01/18 00:03:51;;;;;;;7.82;4.05;;;;;;;-1.33;100.00;98235.19;5232181;28;20021;-74
2023/01/18 00:06:26;;;;;;;12.52;4.88;;;;;;;-1.32;100.00;98236.88;5225292;28;20501;-75
2023/01/18 00:08:56;;;;;;;9.27;5.18;;;;;;;-1.37;100.00;98233.56;5228111;28;20035;-74
2023/01/18 00:11:27;;;;;;;15.95;6.43;;;;;;;-1.31;100.00;98227.44;5232539;28;20037;-75
2023/01/18 00:13:57;;;;;;;13.32;6.78;;;;;;;-1.16;100.00;98224.47;5234283;28;20055;-74
2023/01/18 00:16:29;;;;;;;11.77;4.97;;;;;;;-1.23;100.00;98221.22;5225092;28;20124;-74
2023/01/18 00:18:59;;;;;;;11.73;4.55;;;;;;;-1.23;100.00;98221.22;5230451;28;20035;-74
2023/01/18 00:21:30;;;;;;;9.10;4.47;;;;;;;-1.34;100.00;98207.91;5231633;28;20032;-75
2023/01/18 00:24:00;;;;;;;8.32;4.50;;;;;;;-1.35;100.00;98210.47;5231774;28;20039;-75
2023/01/18 00:26:30;;;;;;;11.88;4.68;;;;;;;-1.45;100.00;98216.72;5227047;28;20371;-72
2023/01/18 00:29:00;;;;;;;11.45;4.55;;;;;;;-1.67;100.00;98221.56;5234114;28;20031;-74
2023/01/18 00:31:31;;;;;;;8.23;4.53;;;;;;;-1.71;100.00;98216.56;5233160;28;20228;-74
2023/01/18 00:34:01;;;;;;;10.32;4.70;;;;;;;-1.70;100.00;98210.56;5231002;28;20041;-74
2023/01/18 00:36:32;;;;;;;15.73;5.10;;;;;;;-1.71;100.00;98211.44;5225846;28;20064;-74
2023/01/18 00:39:03;;;;;;;8.10;4.38;;;;;;;-1.47;100.00;98211.66;5228525;28;20024;-74
2023/01/18 00:41:33;;;;;;;8.88;4.60;;;;;;;-1.53;100.00;98213.53;5230888;28;20037;-75
2023/01/18 00:44:05;;;;;;;11.48;4.90;;;;;;;-1.75;100.00;98207.28;5227216;28;20056;-74
2023/01/18 00:46:36;;;;;;;10.20;4.90;;;;;;;-1.83;100.00;98214.28;5224484;28;20033;-74
2023/01/18 00:49:06;;;;;;;13.23;5.32;;;;;;;-1.81;100.00;98215.09;5227737;28;20032;-74
2023/01/18 00:51:36;;;;;;;9.77;4.93;;;;;;;-1.74;100.00;98216.63;5230887;28;20120;-75
2023/01/18 00:54:06;;;;;;;12.43;4.75;;;;;;;-1.80;100.00;98206.53;5230446;28;20091;-74
2023/01/18 00:56:37;;;;;;;10.13;4.50;;;;;;;-1.78;100.00;98208.19;5229007;28;20029;-73
2023/01/18 00:59:07;;;;;;;11.80;4.60;;;;;;;-1.88;100.00;98208.44;5228120;28;20074;-73
2023/01/18 01:01:37;;;;;;;11.70;5.75;;;;;;;-1.88;100.00;98214.38;5232553;28;20402;-72
2023/01/18 01:06:56;;;;;;;12.82;5.30;;;;;;;-1.92;100.00;98206.00;5221423;28;20098;-74
2023/01/18 01:09:29;;;;;;;10.90;5.00;;;;;;;-1.67;100.00;98202.78;5228607;28;20379;-75
2023/01/18 01:26:10;;;;;;;10.55;4.85;;;;;;;-1.97;100.00;98218.88;5226012;28;20032;-75
2023/01/18 01:28:43;;;;;;;10.00;4.57;;;;;;;-2.03;100.00;98220.78;5206807;28;20036;-75
2023/01/18 01:31:15;;;;;;;10.07;4.25;;;;;;;-2.03;100.00;98224.16;5212444;28;20276;-74
2023/01/18 01:33:47;;;;;;;11.02;5.25;;;;;;;-1.90;100.00;98227.25;5214428;28;20029;-74
2023/01/18 01:36:24;;;;;;;8.30;4.80;;;;;;;-1.75;100.00;98236.25;5229820;28;20043;-74
2023/01/18 01:38:54;;;;;;;9.63;4.80;;;;;;;-2.01;100.00;98242.88;5208440;28;20025;-74
2023/01/18 01:41:27;;;;;;;9.98;5.03;;;;;;;-1.94;100.00;98239.31;5226590;28;20098;-74
2023/01/18 01:44:03;;;;;;;10.52;5.10;;;;;;;-1.97;100.00;98225.75;5222796;28;20039;-74
2023/01/18 01:46:48;;;;;;;12.52;4.40;;;;;;;-2.03;100.00;98234.41;5230181;28;20041;-74
2023/01/18 01:49:31;;;;;;;11.93;4.95;;;;;;;-1.92;100.00;98232.44;5233206;28;20056;-74
2023/01/18 01:52:08;;;;;;;8.88;4.28;;;;;;;-1.94;100.00;98235.91;5224888;28;20017;-74
2023/01/18 01:54:48;;;;;;;8.82;4.78;;;;;;;-2.09;100.00;98237.09;5229114;28;20122;-73
2023/01/18 01:57:27;;;;;;;9.90;4.40;;;;;;;-2.10;100.00;98253.34;5227642;28;20535;-73
2023/01/18 02:00:01;;;;;;;9.02;4.75;;;;;;;-2.24;100.00;98247.69;5225098;28;20029;-74
2023/01/18 02:02:34;;;;;;;12.07;4.65;;;;;;;-2.35;100.00;98249.63;5226031;28;20024;-74
2023/01/18 02:05:06;;;;;;;11.60;4.57;;;;;;;-1.93;100.00;98241.00;5225565;28;20021;-74
2023/01/18 02:07:37;;;;;;;12.90;4.57;;;;;;;-1.80;100.00;98252.59;5225630;28;20032;-74
2023/01/18 02:10:07;;;;;;;9.35;4.40;;;;;;;-1.82;100.00;98249.22;5226433;28;20044;-75
2023/01/18 02:12:41;;;;;;;10.20;4.28;;;;;;;-2.09;100.00;98257.56;5226424;28;20025;-73
2023/01/18 02:15:12;;;;;;;8.60;4.30;;;;;;;-2.23;100.00;98251.91;5227804;28;20048;-75
2023/01/18 02:17:57;;;;;;;11.68;4.20;;;;;;;-2.35;100.00;98249.63;5230628;28;20433;-74
2023/01/18 02:20:36;;;;;;;9.35;4.88;;;;;;;-2.29;100.00;98252.06;5222176;28;20029;-74
2023/01/18 02:23:25;;;;;;;12.07;5.15;;;;;;;-1.99;100.00;98253.91;5203248;28;20037;-74
2023/01/18 02:26:29;;;;;;;11.13;5.35;;;;;;;-1.80;100.00;98261.13;5226608;28;20045;-74
2023/01/18 02:29:12;;;;;;;11.63;4.65;;;;;;;-1.88;100.00;98263.88;5228793;28;20025;-71
2023/01/18 02:32:03;;;;;;;9.75;4.70;;;;;;;-1.71;100.00;98270.28;5222386;28;20024;-74
2023/01/18 02:34:44;;;;;;;12.07;5.07;;;;;;;-2.03;100.00;98274.50;5224943;28;20119;-74
2023/01/18 02:37:49;;;;;;;12.02;5.30;;;;;;;-1.90;100.00;98276.72;5228756;28;20502;-74
2023/01/18 02:40:44;;;;;;;12.18;5.20;;;;;;;-1.69;100.00;98271.09;5212540;28;20510;-73
2023/01/18 02:49:08;;;;;;;10.23;4.50;;;;;;;-2.11;100.00;98295.13;5233208;28;20584;-74
2023/01/18 02:51:38;;;;;;;11.48;5.07;;;;;;;-2.16;100.00;98294.38;5246324;22;20041;-72
2023/01/18 02:54:11;;;;;;;10.93;5.32;;;;;;;-1.92;100.00;98292.97;5218163;28;20522;-73
2023/01/18 02:56:48;;;;;;;11.82;5.43;;;;;;;-1.85;100.00;98295.38;5222728;28;20035;-72
2023/01/18 02:59:26;;;;;;;17.10;4.97;;;;;;;-2.05;100.00;98302.66;5232134;28;20025;-74
2023/01/18 03:02:03;;;;;;;9.00;4.72;;;;;;;-2.21;100.00;98301.31;5226226;28;20625;-72
2023/01/18 03:04:53;;;;;;;9.30;4.70;;;;;;;-2.06;100.00;98306.09;5223060;28;20041;-73
2023/01/18 03:07:31;;;;;;;9.80;5.15;;;;;;;-1.93;100.00;98304.94;5223813;28;20021;-73
2023/01/18 03:10:05;;;;;;;11.65;5.25;;;;;;;-2.13;100.00;98308.81;5235589;28;20024;-73
2023/01/18 03:12:56;;;;;;;9.90;5.57;;;;;;;-2.17;100.00;98302.09;5232852;28;20557;-73
2023/01/18 03:15:44;;;;;;;12.55;5.43;;;;;;;-1.98;100.00;98301.63;5224274;28;20056;-72
2023/01/18 03:18:20;;;;;;;11.20;4.88;;;;;;;-1.80;100.00;98311.44;5213881;28;20476;-73
2023/01/18 03:20:54;;;;;;;11.93;5.38;;;;;;;-1.72;100.00;98301.88;5230446;28;20032;-73
2023/01/18 03:23:40;;;;;;;10.43;4.68;;;;;;;-1.71;100.00;98313.81;5234563;28;20048;-73
2023/01/18 03:26:13;;;;;;;11.65;4.85;;;;;;;-1.89;100.00;98313.38;5212903;28;20051;-74
2023/01/18 03:34:36;;;;;;;10.77;4.70;;;;;;;-2.07;100.00;98306.13;5224235;28;20133;-73
2023/01/18 03:37:15;;;;;;;10.63;5.20;;;;;;;-2.12;100.00;98300.28;5226513;28;20097;-74
2023/01/18 03:39:52;;;;;;;12.95;5.40;;;;;;;-2.11;100.00;98307.91;5232555;28;20041;-73
2023/01/18 03:42:36;;;;;;;10.93;4.78;;;;;;;-2.05;100.00;98310.34;5226634;28;20046;-73
2023/01/18 03:45:12;;;;;;;11.93;5.07;;;;;;;-2.09;100.00;98315.53;5228450;28;20033;-73
2023/01/18 03:47:42;;;;;;;9.90;5.28;;;;;;;-2.07;100.00;98313.78;5225240;28;20025;-73
2023/01/18 03:50:13;;;;;;;11.50;5.15;;;;;;;-2.17;100.00;98318.25;5231237;28;20627;-73
2023/01/18 03:52:47;;;;;;;10.32;5.03;;;;;;;-2.11;100.00;98318.16;5231568;28;20527;-73
2023/01/18 03:55:42;;;;;;;12.10;5.70;;;;;;;-2.12;100.00;98321.59;5228491;28;20067;-74
2023/01/18 03:58:18;;;;;;;10.50;4.50;;;;;;;-2.01;100.00;98317.06;5229009;28;20051;-73
2023/01/18 04:00:51;;;;;;;11.20;5.00;;;;;;;-1.81;100.00;98317.44;5211154;28;20012;-74
2023/01/18 04:03:21;;;;;;;9.43;4.55;;;;;;;-1.66;100.00;98315.38;5202221;28;20452;-73
2023/01/18 04:05:52;;;;;;;10.30;4.63;;;;;;;-1.67;100.00;98323.94;5225881;28;20033;-73
2023/01/18 04:08:22;;;;;;;8.27;4.20;;;;;;;-1.78;100.00;98330.19;5231123;28;20029;-74
2023/01/18 04:10:52;;;;;;;8.63;4.63;;;;;;;-1.80;100.00;98331.91;5228236;28;20035;-73
2023/01/18 04:13:23;;;;;;;7.40;4.18;;;;;;;-2.04;100.00;98340.16;5234388;28;20494;-74
2023/01/18 04:15:53;;;;;;;12.20;4.75;;;;;;;-2.14;100.00;98333.53;5227728;28;20082;-73
2023/01/18 04:18:24;;;;;;;10.63;4.93;;;;;;;-2.14;100.00;98336.09;5227065;28;20104;-73
2023/01/18 04:20:55;;;;;;;8.43;4.85;;;;;;;-2.15;100.00;98341.25;5229583;28;20033;-73
2023/01/18 04:23:26;;;;;;;11.55;4.50;;;;;;;-2.08;100.00;98338.53;5225979;28;20074;-72
2023/01/18 04:25:56;;;;;;;9.55;4.35;;;;;;;-1.94;100.00;98343.34;5229068;28;20108;-73
2023/01/18 04:28:27;;;;;;;8.60;4.20;;;;;;;-2.05;100.00;98348.69;5224662;28;20148;-73
2023/01/18 04:30:58;;;;;;;8.30;4.32;;;;;;;-1.90;100.00;98353.50;5224140;28;20017;-73
2023/01/18 04:33:28;;;;;;;9.48;4.63;;;;;;;-2.07;100.00;98353.00;5224906;28;20035;-72
2023/01/18 04:35:59;;;;;;;10.55;5.00;;;;;;;-2.17;100.00;98354.06;5226261;28;20123;-74
2023/01/18 04:38:29;;;;;;;9.70;5.00;;;;;;;-1.98;100.00;98355.34;5225273;28;20073;-73
2023/01/18 04:41:04;;;;;;;9.07;4.60;;;;;;;-1.80;100.00;98354.94;5228389;28;20087;-73
2023/01/18 04:43:35;;;;;;;8.82;4.22;;;;;;;-2.08;100.00;98351.34;5232028;28;20058;-73
2023/01/18 04:46:05;;;;;;;10.18;4.57;;;;;;;-2.17;100.00;98354.06;5206743;28;20041;-73
2023/01/18 04:48:36;;;;;;;7.45;4.25;;;;;;;-2.24;100.00;98351.66;5225552;28;20570;-72
2023/01/18 04:51:11;;;;;;;8.02;4.70;;;;;;;-2.25;100.00;98360.22;5229883;28;20096;-73
2023/01/18 04:53:43;;;;;;;8.65;4.93;;;;;;;-2.41;100.00;98364.81;5229230;28;20028;-73
2023/01/18 04:56:13;;;;;;;8.30;4.32;;;;;;;-2.37;100.00;98365.59;5226743;28;20086;-74
2023/01/18 04:58:44;;;;;;;8.07;4.65;;;;;;;-2.46;100.00;98361.50;5212285;28;20502;-73
2023/01/18 05:01:15;;;;;;;9.82;4.63;;;;;;;-2.45;100.00;98365.75;5214305;28;20690;-73
2023/01/18 05:03:46;;;;;;;12.50;4.55;;;;;;;-2.47;100.00;98370.03;5228492;28;20073;-74
2023/01/18 05:06:18;;;;;;;10.38;4.40;;;;;;;-2.40;100.00;98371.59;5222647;28;20020;-73
2023/01/18 05:08:49;;;;;;;11.40;4.90;;;;;;;-2.38;100.00;98369.00;5230608;28;20032;-73
2023/01/18 05:11:22;;;;;;;10.35;4.57;;;;;;;-2.39;100.00;98375.84;5235478;28;20021;-73
2023/01/18 05:13:52;;;;;;;10.48;4.85;;;;;;;-2.35;100.00;98369.78;5226747;28;20036;-74
2023/01/18 05:16:22;;;;;;;12.23;5.10;;;;;;;-2.30;100.00;98378.19;5222557;28;20074;-72
2023/01/18 05:18:53;;;;;;;11.65;5.10;;;;;;;-2.11;100.00;98373.56;5196164;28;20395;-74
2023/01/18 05:21:23;;;;;;;9.13;4.28;;;;;;;-2.30;100.00;98385.03;5232320;28;20029;-73
2023/01/18 05:23:53;;;;;;;9.75;4.55;;;;;;;-2.41;100.00;98390.38;5228805;28;20039;-74
2023/01/18 05:26:24;;;;;;;8.95;4.40;;;;;;;-2.44;100.00;98394.69;5226602;28;20532;-73
2023/01/18 05:28:57;;;;;;;11.85;4.65;;;;;;;-2.42;100.00;98396.34;5223682;28;20035;-73
2023/01/18 05:31:28;;;;;;;8.93;4.82;;;;;;;-2.44;100.00;98389.59;5232721;28;20028;-74
2023/01/18 05:33:58;;;;;;;9.73;4.60;;;;;;;-2.29;100.00;98395.25;5216414;28;20180;-73
2023/01/18 05:36:28;;;;;;;11.52;4.47;;;;;;;-2.29;100.00;98394.41;5222006;28;20044;-74
2023/01/18 05:38:59;;;;;;;9.30;4.57;;;;;;;-2.35;100.00;98400.47;5222981;28;20068;-74
2023/01/18 05:41:29;;;;;;;9.00;4.68;;;;;;;-2.30;100.00;98406.31;5225661;28;20107;-74
2023/01/18 05:43:59;;;;;;;10.23;4.55;;;;;;;-2.34;100.00;98409.00;5228927;28;20540;-73
2023/01/18 05:46:29;;;;;;;9.57;4.38;;;;;;;-2.41;100.00;98404.84;5229184;28;20158;-73
2023/01/18 05:49:00;;;;;;;7.63;4.05;;;;;;;-2.34;100.00;98412.38;5230080;28;20035;-72
2023/01/18 05:51:30;;;;;;;7.32;4.25;;;;;;;-2.21;100.00;98408.72;5208606;28;20025;-72
2023/01/18 05:54:00;;;;;;;9.32;4.45;;;;;;;-1.99;100.00;98420.19;5224632;28;20033;-73
2023/01/18 05:56:31;;;;;;;9.93;4.40;;;;;;;-2.29;100.00;98420.81;5231789;28;20036;-74
2023/01/18 05:59:02;;;;;;;10.43;4.55;;;;;;;-2.46;100.00;98425.41;5230840;28;20024;-74
2023/01/18 06:01:32;;;;;;;8.38;4.35;;;;;;;-2.36;100.00;98421.78;5208035;28;20675;-73
2023/01/18 06:04:03;;;;;;;9.05;4.30;;;;;;;-2.36;100.00;98429.47;5212388;28;20033;-73
2023/01/18 06:06:33;;;;;;;8.65;3.90;;;;;;;-2.48;100.00;98432.25;5227817;28;20068;-71
2023/01/18 06:09:04;;;;;;;9.73;4.30;;;;;;;-2.59;100.00;98426.50;5221343;28;20036;-74
2023/01/18 06:11:34;;;;;;;10.35;4.32;;;;;;;-2.64;100.00;98428.31;5231473;28;20032;-73
2023/01/18 06:14:04;;;;;;;12.90;4.60;;;;;;;-2.54;100.00;98437.47;5229084;28;20433;-73
2023/01/18 06:16:35;;;;;;;9.05;4.05;;;;;;;-2.26;100.00;98432.69;5228555;28;20056;-74
2023/01/18 06:19:05;;;;;;;8.38;4.25;;;;;;;-2.22;100.00;98435.16;5228205;28;20039;-73
2023/01/18 06:21:35;;;;;;;10.65;4.22;;;;;;;-2.33;100.00;98444.75;5231128;28;20029;-73
2023/01/18 06:24:06;;;;;;;8.77;4.00;;;;;;;-2.43;100.00;98443.25;5230240;28;20025;-74
2023/01/18 06:26:36;;;;;;;7.07;3.70;;;;;;;-2.50;100.00;98451.88;5228266;28;20504;-74
2023/01/18 06:29:06;;;;;;;11.60;4.38;;;;;;;-2.46;100.00;98453.53;5230993;28;20394;-73
2023/01/18 06:31:37;;;;;;;7.95;4.13;;;;;;;-2.55;100.00;98461.34;5231159;28;20059;-73
2023/01/18 06:34:08;;;;;;;9.23;4.47;;;;;;;-2.62;100.00;98454.69;5226103;28;20075;-74
2023/01/18 06:36:38;;;;;;;12.05;5.03;;;;;;;-2.64;100.00;98458.97;5228265;28;20534;-74
2023/01/18 06:39:08;;;;;;;10.07;4.22;;;;;;;-2.58;100.00;98468.22;5211756;28;20170;-74
2023/01/18 06:41:39;;;;;;;10.90;5.00;;;;;;;-2.49;100.00;98460.41;5220935;28;20068;-74
2023/01/18 06:44:09;;;;;;;9.48;4.45;;;;;;;-2.31;100.00;98466.00;5225175;28;20561;-73
2023/01/18 06:46:42;;;;;;;12.70;5.00;;;;;;;-2.38;100.00;98469.56;5209802;28;20139;-74
2023/01/18 06:49:13;;;;;;;8.25;4.28;;;;;;;-2.32;100.00;98472.00;5226849;28;20028;-74
2023/01/18 06:51:43;;;;;;;14.57;4.65;;;;;;;-2.08;100.00;98471.56;5227031;28;20025;-74
2023/01/18 06:54:15;;;;;;;8.45;4.32;;;;;;;-2.21;100.00;98480.31;5230757;28;20020;-73
2023/01/18 06:56:47;;;;;;;11.88;5.05;;;;;;;-2.14;100.00;98481.06;5232224;28;20029;-74
2023/01/18 06:59:17;;;;;;;10.60;4.70;;;;;;;-2.49;100.00;98484.25;5232848;28;20086;-73
2023/01/18 07:01:47;;;;;;;10.80;4.38;;;;;;;-2.50;100.00;98489.41;5232610;28;20753;-73
2023/01/18 07:04:17;;;;;;;7.95;4.28;;;;;;;-2.40;100.00;98493.47;5231407;28;20112;-74
2023/01/18 07:06:48;;;;;;;8.23;4.38;;;;;;;-2.42;100.00;98496.06;5235741;28;20075;-74
2023/01/18 07:09:18;;;;;;;9.55;4.63;;;;;;;-2.58;100.00;98504.00;5232347;28;20036;-73
2023/01/18 07:11:48;;;;;;;9.10;4.90;;;;;;;-2.40;100.00;98508.78;5230309;28;20040;-74
2023/01/18 07:14:19;;;;;;;9.48;4.60;;;;;;;-2.48;100.00;98513.22;5228589;28;20068;-74
2023/01/18 07:16:49;;;;;;;11.27;5.40;;;;;;;-2.42;100.00;98511.41;5227433;28;20150;-74
2023/01/18 07:19:19;;;;;;;11.57;4.60;;;;;;;-2.51;100.00;98510.72;5231031;28;20032;-73
2023/01/18 07:21:52;;;;;;;10.52;4.72;;;;;;;-2.52;100.00;98519.25;5230704;28;20432;-74
2023/01/18 07:24:22;;;;;;;10.48;4.13;;;;;;;-2.50;100.00;98518.34;5221914;28;20028;-74
2023/01/18 07:26:53;;;;;;;12.93;5.20;;;;;;;-2.52;100.00;98520.09;5235378;28;20423;-73
2023/01/18 07:29:24;;;;;;;10.27;5.20;;;;;;;-2.52;100.00;98524.38;5212981;28;20037;-74
2023/01/18 07:31:55;;;;;;;9.38;4.93;;;;;;;-2.53;100.00;98523.50;5234362;28;20044;-74
2023/01/18 07:34:25;;;;;;;11.15;4.72;;;;;;;-2.51;100.00;98542.22;5216626;28;20040;-73
2023/01/18 07:36:55;;;;;;;10.63;4.93;;;;;;;-2.38;100.00;98538.59;5209312;28;20110;-73
2023/01/18 07:39:26;;;;;;;9.90;4.88;;;;;;;-2.29;100.00;98551.22;5224319;28;20036;-73
2023/01/18 07:41:56;;;;;;;12.32;4.93;;;;;;;-2.18;100.00;98536.53;5226202;28;20473;-73
2023/01/18 07:44:26;;;;;;;10.25;5.05;;;;;;;-2.34;100.00;98550.44;5225988;28;20032;-74
2023/01/18 07:46:58;;;;;;;9.02;5.07;;;;;;;-2.29;100.00;98548.69;5205216;28;20073;-73
2023/01/18 07:49:28;;;;;;;11.18;5.13;;;;;;;-2.33;100.00;98547.00;5232073;28;20708;-74
2023/01/18 07:51:58;;;;;;;11.52;5.60;;;;;;;-2.35;100.00;98548.75;5227011;28;20107;-73
2023/01/18 07:54:29;;;;;;;10.98;5.00;;;;;;;-2.16;100.00;98555.25;5224322;28;20399;-74
2023/01/18 07:56:59;;;;;;;10.57;4.88;;;;;;;-2.20;100.00;98563.84;5232154;28;20036;-74
2023/01/18 07:59:31;;;;;;;10.00;4.57;;;;;;;-2.25;100.00;98560.53;5216020;28;20751;-74
2023/01/18 08:02:02;;;;;;;9.90;5.00;;;;;;;-2.30;100.00;98572.53;5228620;28;20021;-74
2023/01/18 08:04:33;;;;;;;11.55;5.00;;;;;;;-2.27;100.00;98576.75;5227073;28;20063;-72
2023/01/18 08:07:03;;;;;;;12.68;4.88;;;;;;;-2.21;100.00;98572.38;5232422;28;20406;-74
2023/01/18 08:09:33;;;;;;;10.20;4.93;;;;;;;-2.16;100.00;98572.31;5232632;28;20153;-73
2023/01/18 08:12:06;;;;;;;17.85;5.68;;;;;;;-2.14;100.00;98573.13;5232748;28;20039;-73
2023/01/18 08:14:37;;;;;;;12.18;5.60;;;;;;;-1.97;100.00;98582.16;5229816;28;20572;-74
2023/01/18 08:17:07;;;;;;;19.10;9.23;;;;;;;-1.99;100.00;98583.91;5206471;28;20068;-74
2023/01/18 08:19:37;;;;;;;23.50;10.75;;;;;;;-1.83;100.00;98579.38;5232979;28;20029;-73
2023/01/18 08:22:08;;;;;;;20.98;10.45;;;;;;;-1.82;100.00;98581.91;5231540;28;20086;-74
2023/01/18 08:24:38;;;;;;;26.25;10.85;;;;;;;-1.76;100.00;98582.63;5230135;28;20028;-74
2023/01/18 08:27:08;;;;;;;19.77;10.27;;;;;;;-1.70;100.00;98586.78;5232091;28;20397;-73
2023/01/18 08:29:38;;;;;;;19.15;9.40;;;;;;;-1.65;100.00;98588.41;5232780;28;20032;-74
2023/01/18 08:32:09;;;;;;;16.98;8.20;;;;;;;-1.77;100.00;98596.28;5228616;28;20651;-73
2023/01/18 08:34:39;;;;;;;13.38;6.45;;;;;;;-1.63;100.00;98596.03;5222065;28;20025;-73
2023/01/18 08:37:10;;;;;;;16.90;7.13;;;;;;;-1.59;100.00;98605.34;5211924;28;20083;-73
2023/01/18 08:39:40;;;;;;;23.95;9.90;;;;;;;-1.71;100.00;98603.84;5223696;28;20039;-74
2023/01/18 08:42:11;;;;;;;27.27;10.48;;;;;;;-1.76;100.00;98615.06;5220519;28;20471;-74
2023/01/18 08:44:41;;;;;;;18.17;7.28;;;;;;;-1.71;100.00;98620.94;5228137;28;20139;-74
2023/01/18 08:47:12;;;;;;;14.10;5.90;;;;;;;-1.79;100.00;98622.78;5231944;28;20504;-73
2023/01/18 08:49:42;;;;;;;13.45;5.70;;;;;;;-1.64;100.00;98622.50;5229032;28;20103;-74
2023/01/18 08:52:14;;;;;;;12.13;5.55;;;;;;;-1.55;100.00;98617.22;5231592;28;20025;-74
2023/01/18 08:54:44;;;;;;;12.18;5.10;;;;;;;-1.47;100.00;98623.88;5230647;28;20604;-73
2023/01/18 08:57:15;;;;;;;8.70;4.78;;;;;;;-1.24;100.00;98619.13;5231898;28;20032;-73
2023/01/18 08:59:46;;;;;;;9.90;4.38;;;;;;;-1.22;100.00;98624.25;5228369;28;20020;-74
2023/01/18 09:02:16;;;;;;;10.57;4.47;;;;;;;-0.95;100.00;98621.09;5233069;28;20032;-73
2023/01/18 09:04:47;;;;;;;11.07;4.93;;;;;;;-1.19;100.00;98619.06;5240548;22;20076;-75
2023/01/18 09:07:18;;;;;;;12.73;4.65;;;;;;;-1.23;100.00;98623.38;5205991;28;20032;-74
2023/01/18 09:09:48;;;;;;;13.00;5.75;;;;;;;-1.32;100.00;98635.53;5211305;28;20105;-74
2023/01/18 09:12:19;;;;;;;9.65;5.10;;;;;;;-1.31;100.00;98637.22;5212774;28;20025;-75
2023/01/18 09:14:49;;;;;;;10.30;5.10;;;;;;;-1.18;100.00;98643.78;5206047;28;20044;-74
2023/01/18 09:17:20;;;;;;;7.63;4.35;;;;;;;-0.94;100.00;98633.03;5201540;28;20546;-74
2023/01/18 09:19:51;;;;;;;12.93;5.03;;;;;;;-0.78;100.00;98636.94;5211689;28;20646;-74
2023/01/18 09:22:23;;;;;;;8.85;4.35;;;;;;;-0.72;100.00;98636.84;5199066;28;20032;-74
2023/01/18 09:24:53;;;;;;;8.98;4.53;;;;;;;-0.85;100.00;98632.84;5185018;28;20107;-74
2023/01/18 09:27:23;;;;;;;10.77;4.45;;;;;;;-0.75;100.00;98639.47;5203790;28;20180;-74
2023/01/18 09:29:53;;;;;;;10.23;4.40;;;;;;;-0.81;100.00;98635.31;5202936;28;20451;-74
2023/01/18 09:32:26;;;;;;;9.40;4.40;;;;;;;-0.56;100.00;98635.63;5202387;28;20038;-75
2023/01/18 09:34:56;;;;;;;10.35;4.63;;;;;;;-0.46;100.00;98642.22;5208404;28;20033;-74
2023/01/18 09:37:26;;;;;;;12.55;5.90;;;;;;;-0.21;100.00;98651.03;5193723;28;20406;-74
2023/01/18 09:39:57;;;;;;;13.98;6.68;;;;;;;-0.26;100.00;98642.59;5208604;28;20036;-74
2023/01/18 09:42:34;;;;;;;12.18;7.03;;;;;;;0.02;100.00;98640.16;5202499;28;20116;-75
2023/01/18 09:45:05;;;;;;;12.23;6.00;;;;;;;0.02;100.00;98647.88;5204518;28;20029;-75
2023/01/18 09:47:45;;;;;;;14.70;6.82;;;;;;;-0.46;100.00;98652.47;5204695;28;20044;-74
2023/01/18 09:50:17;;;;;;;10.45;4.75;;;;;;;-0.31;100.00;98650.41;5206128;28;20021;-75
2023/01/18 09:53:02;;;;;;;9.68;4.82;;;;;;;-0.12;100.00;98658.50;5207615;28;20025;-75
2023/01/18 09:56:04;;;;;;;11.95;5.35;;;;;;;-0.03;100.00;98653.97;5203002;28;20377;-75
2023/01/18 09:58:49;;;;;;;9.52;5.07;;;;;;;0.04;100.00;98652.97;5199819;28;20049;-74
2023/01/18 10:01:24;;;;;;;13.57;5.47;;;;;;;0.21;100.00;98641.38;5185298;28;20026;-75
2023/01/18 10:04:00;;;;;;;10.05;5.80;;;;;;;0.26;100.00;98649.84;5207224;28;20032;-75
2023/01/18 10:06:45;;;;;;;16.25;7.78;;;;;;;0.40;100.00;98646.91;5206982;28;20132;-75
2023/01/18 10:09:39;;;;;;;20.25;9.93;;;;;;;0.42;100.00;98643.38;5211215;28;20573;-74
2023/01/18 10:12:39;;;;;;;16.77;7.57;;;;;;;0.34;100.00;98640.19;5207087;28;20044;-74
2023/01/18 10:15:19;;;;;;;33.58;15.20;;;;;;;0.53;100.00;98640.56;5198395;28;20037;-74
2023/01/18 10:17:54;;;;;;;72.93;27.77;;;;;;;0.50;100.00;98641.47;5206349;28;21502;-75
2023/01/18 10:20:43;;;;;;;52.65;19.63;;;;;;;0.55;100.00;98644.75;5208931;28;20052;-75
2023/01/18 10:23:23;;;;;;;30.45;11.02;;;;;;;0.40;100.00;98645.16;5206731;28;20462;-75
2023/01/18 10:26:00;;;;;;;18.58;7.38;;;;;;;0.53;100.00;98651.66;5203142;28;20643;-75
2023/01/18 10:28:59;;;;;;;14.50;6.55;;;;;;;0.74;100.00;98651.06;5203889;28;20396;-74
2023/01/18 10:31:44;;;;;;;9.77;4.78;;;;;;;0.69;100.00;98647.81;5211823;28;20530;-73
2023/01/18 10:34:21;;;;;;;7.33;3.93;;;;;;;0.87;100.00;98649.84;5210139;28;20020;-74
2023/01/18 10:36:56;;;;;;;11.30;4.35;;;;;;;0.78;100.00;98663.00;5206339;28;20473;-74
2023/01/18 10:39:34;;;;;;;15.65;4.07;;;;;;;0.67;100.00;98659.84;5211844;28;20039;-74
2023/01/18 10:42:17;;;;;;;13.40;4.72;;;;;;;0.66;100.00;98655.59;5200065;28;20476;-75
2023/01/18 10:44:48;;;;;;;8.90;4.28;;;;;;;0.66;100.00;98658.16;5208342;28;20112;-75
2023/01/18 10:47:19;;;;;;;8.52;4.15;;;;;;;0.60;100.00;98657.50;5211758;28;20113;-75
2023/01/18 10:49:57;;;;;;;8.52;4.15;;;;;;;0.79;100.00;98662.09;5210288;28;20031;-74
2023/01/18 10:52:30;;;;;;;9.38;4.25;;;;;;;0.99;100.00;98661.53;5203685;28;20057;-74
2023/01/18 10:55:06;;;;;;;9.05;4.32;;;;;;;1.13;100.00;98669.69;5208770;28;20020;-74
2023/01/18 10:57:42;;;;;;;13.48;4.40;;;;;;;1.01;100.00;98667.47;5213959;28;20470;-74
2023/01/18 11:00:32;;;;;;;8.43;4.40;;;;;;;1.02;100.00;98675.16;5208398;28;20028;-74
2023/01/18 11:03:04;;;;;;;12.48;5.07;;;;;;;1.24;100.00;98670.25;5209529;28;20045;-74
2023/01/18 11:05:44;;;;;;;17.25;5.82;;;;;;;1.44;100.00;98671.31;5212784;28;20100;-75
2023/01/18 11:08:20;;;;;;;18.08;6.43;;;;;;;1.48;100.00;98679.78;5211268;28;20500;-75
2023/01/18 11:11:16;;;;;;;17.90;6.50;;;;;;;1.39;100.00;98673.19;5204364;28;20414;-75
2023/01/18 11:13:48;;;;;;;15.63;5.97;;;;;;;1.52;100.00;98679.66;5205875;28;20033;-74
2023/01/18 11:16:22;;;;;;;14.00;5.85;;;;;;;1.76;100.00;98672.94;5203267;28;20395;-73
2023/01/18 11:19:16;;;;;;;15.18;5.75;;;;;;;1.91;100.00;98683.59;5203489;28;20099;-75
2023/01/18 11:21:49;;;;;;;13.80;5.93;;;;;;;2.09;100.00;98683.84;5208033;28;20212;-74
2023/01/18 11:24:30;;;;;;;14.43;5.95;;;;;;;1.96;98.68;98687.69;5201984;28;20029;-74
2023/01/18 11:27:06;;;;;;;12.70;5.80;;;;;;;2.05;99.14;98682.28;5202193;28;20029;-74
2023/01/18 11:29:41;;;;;;;15.85;6.35;;;;;;;1.91;99.28;98679.28;5203978;28;20111;-73
2023/01/18 11:32:28;;;;;;;;;;;;;;;1.81;99.67;98683.03;5208013;28;20029;-74
2023/01/18 11:34:59;;;;;;;17.83;6.20;;;;;;;2.19;99.20;98676.66;5206312;28;19976;-74
2023/01/18 11:37:33;;;;;;;13.40;6.20;;;;;;;2.29;93.67;98685.75;5208616;28;20534;-74
2023/01/18 11:40:25;;;;;;;12.23;6.50;;;;;;;2.42;93.92;98676.75;5204638;28;20436;-74
2023/01/18 11:43:26;;;;;;;13.55;6.82;;;;;;;2.18;95.95;98687.88;5206476;28;20048;-75
2023/01/18 11:46:27;;;;;;;15.73;6.80;;;;;;;2.13;96.49;98679.47;5187323;28;20041;-75
2023/01/18 11:49:10;;;;;;;14.02;7.07;;;;;;;2.31;95.63;98684.00;5211631;28;20056;-74
2023/01/18 11:51:50;;;;;;;18.02;7.53;;;;;;;2.23;95.95;98685.97;5188918;28;20356;-75
2023/01/18 11:54:47;;;;;;;19.10;7.10;;;;;;;2.28;95.66;98691.81;5205636;28;20201;-75
2023/01/18 11:57:17;;;;;;;;;;;;;;;2.14;96.69;98701.75;5209119;28;20060;-74
2023/01/18 11:59:47;;;;;;;16.15;6.20;;;;;;;2.40;95.44;98699.16;5204474;28;20398;-75
2023/01/18 12:02:44;;;;;;;16.50;6.97;;;;;;;2.41;93.03;98698.25;5163642;28;20025;-74
2023/01/18 12:05:21;;;;;;;9.95;5.80;;;;;;;2.37;93.23;98704.41;5212075;28;20029;-75
2023/01/18 12:08:23;;;;;;;11.52;5.18;;;;;;;2.52;93.09;98703.91;5206805;28;20057;-75
2023/01/18 12:11:08;;;;;;;26.48;6.78;;;;;;;2.53;92.43;98700.44;5210953;28;20037;-74
2023/01/18 12:13:42;;;;;;;16.52;6.53;;;;;;;2.62;91.60;98705.25;5211648;28;20060;-74
2023/01/18 12:16:21;;;;;;;20.52;6.57;;;;;;;2.67;92.55;98705.97;5204534;28;20383;-75
2023/01/18 12:19:20;;;;;;;13.85;6.25;;;;;;;2.54;92.05;98697.78;5198266;28;20025;-75
2023/01/18 12:22:23;;;;;;;13.00;5.80;;;;;;;2.66;92.18;98701.72;5201276;28;20075;-74
2023/01/18 12:25:03;;;;;;;14.98;5.93;;;;;;;2.63;92.82;98709.53;5190512;28;20550;-74